createdAt,value
2019-03-23T00:01:51.089Z,50.20
2019-03-23T00:04:20.508Z,50.80
2019-03-23T00:06:49.839Z,50.70
2019-03-23T00:09:18.878Z,50.40
2019-03-23T00:11:48.005Z,50.70
2019-03-23T00:14:17.111Z,50.50
2019-03-23T00:16:46.448Z,50.90
2019-03-23T00:19:15.742Z,50.90
2019-03-23T00:21:44.951Z,50.90
2019-03-23T00:24:14.262Z,51.00
2019-03-23T00:26:43.748Z,50.90
2019-03-23T00:29:13.215Z,51.00
2019-03-23T00:31:42.563Z,51.20
2019-03-23T00:34:11.554Z,51.40
2019-03-23T00:36:42.036Z,51.70
2019-03-23T00:39:11.631Z,51.70
2019-03-23T00:42:36.258Z,52.70
2019-03-23T00:45:06.183Z,53.00
2019-03-23T00:47:35.784Z,52.20
2019-03-23T00:50:05.815Z,52.30
2019-03-23T00:52:35.232Z,52.00
2019-03-23T00:55:05.465Z,52.80
2019-03-23T00:57:34.874Z,52.50
2019-03-23T01:00:05.482Z,52.40
2019-03-23T01:02:34.980Z,52.40
2019-03-23T01:05:05.276Z,52.80
2019-03-23T01:07:34.497Z,53.00
2019-03-23T01:10:04.685Z,53.20
2019-03-23T01:12:34.278Z,53.80
2019-03-23T01:15:06.801Z,53.20
2019-03-23T01:17:36.141Z,53.40
2019-03-23T01:20:06.810Z,53.40
2019-03-23T01:22:35.401Z,53.50
2019-03-23T01:25:05.161Z,53.90
2019-03-23T01:27:34.356Z,53.40
2019-03-23T01:30:05.138Z,53.60
2019-03-23T01:32:34.538Z,53.50
2019-03-23T01:35:04.754Z,53.80
2019-03-23T01:37:34.054Z,53.80
2019-03-23T01:40:03.575Z,53.80
2019-03-23T01:42:32.957Z,53.80
2019-03-23T01:45:02.749Z,53.70
2019-03-23T01:47:32.214Z,54.20
2019-03-23T01:50:01.278Z,54.00
2019-03-23T01:52:30.511Z,54.70
2019-03-23T01:55:00.080Z,54.20
2019-03-23T01:57:29.341Z,54.20
2019-03-23T01:59:58.685Z,54.20
2019-03-23T02:02:28.286Z,55.00
2019-03-23T02:04:57.588Z,55.30
2019-03-23T02:07:26.955Z,55.60
2019-03-23T02:09:56.202Z,55.90
2019-03-23T02:12:25.867Z,56.30
2019-03-23T02:14:54.926Z,56.10
2019-03-23T02:17:24.468Z,56.40
2019-03-23T02:19:54.000Z,56.40
2019-03-23T02:22:23.476Z,57.10
2019-03-23T02:24:52.884Z,57.00
2019-03-23T02:27:22.324Z,57.50
2019-03-23T02:29:51.522Z,57.40
2019-03-23T02:32:20.831Z,57.60
2019-03-23T02:34:50.055Z,57.40
2019-03-23T02:37:27.595Z,57.40
2019-03-23T02:39:50.627Z,57.40
2019-03-23T02:42:19.671Z,57.70
2019-03-23T02:44:48.751Z,57.80
2019-03-23T02:47:18.419Z,58.10
2019-03-23T02:49:48.106Z,58.10
2019-03-23T02:52:17.445Z,58.40
2019-03-23T02:54:46.928Z,59.00
2019-03-23T02:57:16.153Z,58.70
2019-03-23T02:59:45.333Z,59.10
2019-03-23T03:02:14.903Z,59.60
2019-03-23T03:04:44.172Z,59.70
2019-03-23T03:07:13.469Z,59.70
2019-03-23T03:09:42.802Z,59.50
2019-03-23T03:12:12.461Z,59.60
2019-03-23T03:14:41.728Z,59.40
2019-03-23T03:17:10.953Z,60.60
2019-03-23T03:19:40.296Z,61.00
2019-03-23T03:22:09.948Z,61.00
2019-03-23T03:24:39.300Z,61.60
2019-03-23T03:27:08.462Z,62.10
2019-03-23T03:29:37.759Z,61.80
2019-03-23T03:32:07.563Z,62.20
2019-03-23T03:34:37.326Z,62.40
2019-03-23T03:37:06.345Z,62.70
2019-03-23T03:39:35.552Z,63.10
2019-03-23T03:42:04.841Z,62.70
2019-03-23T03:44:34.322Z,63.80
2019-03-23T03:47:03.862Z,63.90
2019-03-23T03:49:33.130Z,63.50
2019-03-23T03:52:02.386Z,63.40
2019-03-23T03:54:31.798Z,62.60
2019-03-23T03:57:01.052Z,63.30
2019-03-23T03:59:30.297Z,63.50
2019-03-23T04:01:59.561Z,63.80
2019-03-23T04:04:29.038Z,64.20
2019-03-23T04:06:58.259Z,64.50
2019-03-23T04:09:27.577Z,64.90
2019-03-23T04:11:56.767Z,64.40
2019-03-23T04:14:25.934Z,64.60
2019-03-23T04:16:55.764Z,64.80
2019-03-23T04:19:25.109Z,64.20
2019-03-23T04:21:54.698Z,64.60
2019-03-23T04:24:24.057Z,64.50
2019-03-23T04:26:53.195Z,64.90
2019-03-23T04:29:22.513Z,65.50
2019-03-23T04:31:51.938Z,66.00
2019-03-23T04:34:21.252Z,66.00
2019-03-23T04:36:50.385Z,66.00
2019-03-23T04:39:19.670Z,66.30
2019-03-23T04:41:48.872Z,66.00
2019-03-23T04:44:18.121Z,65.50
2019-03-23T04:46:47.691Z,65.50
2019-03-23T04:49:17.669Z,65.80
2019-03-23T04:51:46.889Z,65.50
2019-03-23T04:54:16.269Z,66.20
2019-03-23T04:56:45.438Z,66.40
2019-03-23T04:59:14.547Z,65.90
2019-03-23T05:01:43.768Z,66.10
2019-03-23T05:04:13.011Z,66.40
2019-03-23T05:06:42.644Z,66.20
2019-03-23T05:09:12.407Z,66.10
2019-03-23T05:11:41.683Z,66.00
2019-03-23T05:14:10.986Z,66.20
2019-03-23T05:16:40.282Z,66.10
2019-03-23T05:19:09.738Z,65.70
2019-03-23T05:21:38.878Z,65.60
2019-03-23T05:24:08.189Z,65.40
2019-03-23T05:26:37.710Z,65.30
2019-03-23T05:29:06.901Z,65.00
2019-03-23T05:31:36.085Z,64.90
2019-03-23T05:34:05.635Z,65.50
2019-03-23T05:36:34.685Z,65.00
2019-03-23T05:39:05.209Z,64.50
2019-03-23T05:41:34.556Z,64.70
2019-03-23T05:44:03.810Z,64.80
2019-03-23T05:46:32.793Z,65.00
2019-03-23T05:49:01.799Z,65.20
2019-03-23T05:51:31.130Z,64.70
2019-03-23T05:54:00.309Z,64.60
2019-03-23T05:56:29.720Z,64.60
2019-03-23T05:58:59.001Z,65.20
2019-03-23T06:01:28.358Z,65.40
2019-03-23T06:03:57.595Z,65.90
2019-03-23T06:06:27.109Z,66.10
2019-03-23T06:08:56.217Z,66.50
2019-03-23T06:11:25.529Z,66.20
2019-03-23T06:13:54.669Z,66.40
2019-03-23T06:16:23.787Z,66.50
2019-03-23T06:18:53.135Z,66.20
2019-03-23T06:21:22.660Z,66.40
2019-03-23T06:23:51.827Z,66.60
2019-03-23T06:26:21.012Z,65.20
2019-03-23T06:28:50.365Z,65.10
2019-03-23T06:31:19.530Z,64.60
2019-03-23T06:33:51.402Z,64.30
2019-03-23T06:36:20.468Z,63.70
2019-03-23T06:38:49.698Z,63.80
2019-03-23T06:41:18.742Z,63.60
2019-03-23T06:43:48.040Z,62.80
2019-03-23T06:46:17.420Z,63.20
2019-03-23T06:48:46.685Z,62.90
2019-03-23T06:51:16.063Z,62.20
2019-03-23T06:53:45.917Z,61.90
2019-03-23T06:56:15.267Z,62.60
2019-03-23T06:58:44.741Z,61.50
2019-03-23T07:01:14.044Z,61.20
2019-03-23T07:03:43.108Z,60.70
2019-03-23T07:06:12.307Z,59.90
2019-03-23T07:08:41.614Z,59.10
2019-03-23T07:11:10.954Z,58.20
2019-03-23T07:13:40.241Z,57.90
2019-03-23T07:16:09.535Z,57.60
2019-03-23T07:18:38.850Z,49.30
2019-03-23T07:21:08.013Z,45.30
2019-03-23T07:23:37.057Z,42.80
2019-03-23T07:26:06.757Z,39.00
2019-03-23T07:28:36.364Z,37.20
2019-03-23T07:31:05.509Z,35.60
2019-03-23T07:33:34.922Z,35.40
2019-03-23T07:36:04.217Z,34.50
2019-03-23T07:38:33.511Z,34.60
2019-03-23T07:41:03.293Z,34.00
2019-03-23T07:43:32.440Z,31.90
2019-03-23T07:46:01.755Z,31.50
2019-03-23T07:48:30.944Z,30.60
2019-03-23T07:51:00.224Z,29.90
2019-03-23T07:53:29.490Z,30.00
2019-03-23T07:55:58.516Z,28.90
2019-03-23T07:58:27.721Z,28.50
2019-03-23T08:00:57.136Z,28.70
2019-03-23T08:03:26.877Z,28.20
2019-03-23T08:05:56.082Z,27.70
2019-03-23T08:08:25.759Z,27.80
2019-03-23T08:10:55.100Z,27.40
2019-03-23T08:13:24.369Z,26.50
2019-03-23T08:15:53.533Z,26.50
2019-03-23T08:18:22.889Z,26.40
2019-03-23T08:20:52.119Z,26.60
2019-03-23T08:23:21.867Z,27.00
2019-03-23T08:25:51.137Z,26.40
2019-03-23T08:28:20.449Z,26.70
2019-03-23T08:30:49.795Z,26.80
2019-03-23T08:33:18.826Z,25.90
2019-03-23T08:35:48.099Z,25.40
2019-03-23T08:38:17.153Z,25.80
2019-03-23T08:40:46.622Z,25.50
2019-03-23T08:43:15.996Z,26.60
2019-03-23T08:45:45.195Z,26.00
2019-03-23T08:48:14.337Z,25.60
2019-03-23T08:50:43.903Z,25.80
2019-03-23T08:53:13.095Z,25.40
2019-03-23T08:55:42.483Z,24.00
2019-03-23T08:58:11.694Z,23.70
2019-03-23T09:00:41.073Z,23.90
2019-03-23T09:03:10.423Z,23.60
2019-03-23T09:05:39.740Z,24.50
2019-03-23T09:08:08.784Z,23.40
2019-03-23T09:10:37.977Z,22.80
2019-03-23T09:13:07.276Z,22.70
2019-03-23T09:15:36.578Z,23.10
2019-03-23T09:18:05.934Z,21.80
2019-03-23T09:20:35.491Z,21.40
2019-03-23T09:23:04.959Z,21.50
2019-03-23T09:25:34.394Z,22.00
2019-03-23T09:28:03.696Z,22.80
2019-03-23T09:30:32.918Z,21.60
2019-03-23T09:33:02.384Z,21.90
2019-03-23T09:35:31.523Z,21.60
2019-03-23T09:38:01.701Z,21.10
2019-03-23T09:40:30.835Z,21.50
2019-03-23T09:43:00.175Z,21.70
2019-03-23T09:45:29.607Z,22.30
2019-03-23T09:47:59.046Z,22.30
2019-03-23T09:50:28.242Z,20.80
2019-03-23T09:52:57.507Z,20.90
2019-03-23T09:55:28.552Z,20.60
2019-03-23T09:57:57.718Z,21.30
2019-03-23T10:00:27.070Z,20.70
2019-03-23T10:02:56.417Z,20.50
2019-03-23T10:05:25.712Z,20.40
2019-03-23T10:07:54.888Z,21.60
2019-03-23T10:10:24.260Z,22.80
2019-03-23T10:12:53.543Z,22.40
2019-03-23T10:15:22.880Z,21.40
2019-03-23T10:17:51.876Z,20.90
2019-03-23T10:20:21.448Z,21.00
2019-03-23T10:22:51.019Z,20.50
2019-03-23T10:25:20.689Z,19.90
2019-03-23T10:27:50.007Z,20.00
2019-03-23T10:30:19.020Z,20.90
2019-03-23T10:32:48.256Z,20.90
2019-03-23T10:35:17.643Z,21.00
2019-03-23T10:37:47.516Z,19.90
2019-03-23T10:40:16.854Z,22.00
2019-03-23T10:42:46.115Z,21.30
2019-03-23T10:45:15.872Z,22.30
2019-03-23T10:47:45.442Z,22.80
2019-03-23T10:50:14.690Z,23.70
2019-03-23T10:52:44.385Z,24.40
2019-03-23T10:55:13.509Z,24.80
2019-03-23T10:57:43.166Z,23.90
2019-03-23T11:00:12.716Z,25.10
2019-03-23T11:02:41.893Z,24.90
2019-03-23T11:05:11.559Z,25.00
2019-03-23T11:07:40.970Z,25.70
2019-03-23T11:10:10.765Z,25.40
2019-03-23T11:12:40.115Z,25.20
2019-03-23T11:15:10.031Z,24.40
2019-03-23T11:17:39.074Z,23.90
2019-03-23T11:20:08.565Z,24.00
2019-03-23T11:22:37.859Z,23.80
2019-03-23T11:25:09.662Z,23.80
2019-03-23T11:27:39.654Z,23.40
2019-03-23T11:30:09.473Z,23.30
2019-03-23T11:32:39.202Z,23.60
2019-03-23T11:35:08.873Z,23.90
2019-03-23T11:37:38.349Z,22.80
2019-03-23T11:40:08.894Z,22.60
2019-03-23T11:42:48.784Z,22.10
2019-03-23T11:45:10.380Z,23.20
2019-03-23T11:47:39.936Z,22.40
2019-03-23T11:50:09.446Z,22.80
2019-03-23T11:52:38.755Z,23.40
2019-03-23T11:55:08.573Z,24.00
2019-03-23T11:57:37.842Z,24.00
2019-03-23T12:00:08.490Z,24.10
2019-03-23T12:02:37.877Z,23.60
2019-03-23T12:05:08.000Z,24.50
2019-03-23T12:07:37.068Z,24.50
2019-03-23T12:10:08.637Z,24.30
2019-03-23T12:12:37.864Z,24.00
2019-03-23T12:15:10.062Z,23.80
2019-03-23T12:17:39.638Z,22.90
2019-03-23T12:20:10.474Z,23.00
2019-03-23T12:22:39.717Z,23.40
2019-03-23T12:25:09.755Z,23.70
2019-03-23T12:27:38.891Z,25.20
2019-03-23T12:30:10.334Z,25.30
2019-03-23T12:32:39.597Z,24.80
2019-03-23T12:35:09.184Z,24.30
2019-03-23T12:37:38.140Z,23.30
2019-03-23T12:40:07.915Z,23.70
2019-03-23T12:42:37.102Z,24.70
2019-03-23T12:45:07.314Z,24.70
2019-03-23T12:47:36.545Z,25.50
2019-03-23T12:50:07.121Z,25.80
2019-03-23T12:52:37.302Z,25.90
2019-03-23T12:55:07.581Z,26.60
2019-03-23T12:57:37.091Z,27.40
2019-03-23T13:00:08.053Z,27.40
2019-03-23T13:02:37.012Z,27.20
2019-03-23T13:05:07.220Z,26.30
2019-03-23T13:07:36.501Z,27.10
2019-03-23T13:10:06.268Z,28.10
2019-03-23T13:12:35.224Z,27.30
2019-03-23T13:15:05.756Z,27.60
2019-03-23T13:17:35.036Z,28.50
2019-03-23T13:20:04.560Z,28.90
2019-03-23T13:22:33.610Z,29.40
2019-03-23T13:25:03.069Z,29.50
2019-03-23T13:27:32.473Z,29.70
2019-03-23T13:30:01.828Z,29.50
2019-03-23T13:32:31.061Z,29.80
2019-03-23T13:35:00.320Z,29.60
2019-03-23T13:37:29.607Z,29.00
2019-03-23T13:39:58.666Z,29.30
2019-03-23T13:42:28.086Z,29.30
2019-03-23T13:44:57.575Z,29.40
2019-03-23T13:47:26.979Z,29.60
2019-03-23T13:49:56.445Z,30.00
2019-03-23T13:52:26.054Z,29.80
2019-03-23T13:54:55.372Z,29.90
2019-03-23T13:57:25.134Z,29.70
2019-03-23T13:59:54.500Z,29.40
2019-03-23T14:02:23.996Z,29.80
2019-03-23T14:04:53.235Z,30.00
2019-03-23T14:07:22.460Z,30.90
2019-03-23T14:09:51.571Z,30.40
2019-03-23T14:12:20.605Z,31.60
2019-03-23T14:14:50.591Z,31.20
2019-03-23T14:17:19.669Z,30.20
2019-03-23T14:19:48.825Z,30.40
2019-03-23T14:22:18.076Z,30.00
2019-03-23T14:24:47.247Z,29.90
2019-03-23T14:27:16.683Z,30.00
2019-03-23T14:29:46.349Z,30.80
2019-03-23T14:32:15.702Z,30.80
2019-03-23T14:34:44.901Z,30.50
2019-03-23T14:37:14.658Z,30.60
2019-03-23T14:39:43.876Z,30.20
2019-03-23T14:42:13.218Z,30.10
2019-03-23T14:44:42.264Z,31.50
2019-03-23T14:47:11.486Z,31.40
2019-03-23T14:49:40.912Z,30.60
2019-03-23T14:52:10.221Z,30.60
2019-03-23T14:54:39.637Z,31.10
2019-03-23T14:57:09.383Z,30.30
2019-03-23T14:59:38.549Z,30.00
2019-03-23T15:02:07.891Z,30.30
2019-03-23T15:04:37.582Z,30.00
2019-03-23T15:07:06.729Z,30.10
2019-03-23T15:09:35.694Z,30.00
2019-03-23T15:12:14.536Z,30.60
2019-03-23T15:14:36.026Z,31.10
2019-03-23T15:17:05.502Z,30.90
2019-03-23T15:19:34.706Z,31.20
2019-03-23T15:22:03.799Z,31.10
2019-03-23T15:24:33.030Z,31.60
2019-03-23T15:27:02.068Z,31.90
2019-03-23T15:29:31.194Z,31.60
2019-03-23T15:32:00.193Z,30.40
2019-03-23T15:34:29.449Z,30.90
2019-03-23T15:36:58.698Z,31.10
2019-03-23T15:39:28.630Z,31.10
2019-03-23T15:41:57.940Z,30.90
2019-03-23T15:44:27.272Z,30.40
2019-03-23T15:46:56.437Z,31.00
2019-03-23T15:49:25.687Z,31.40
2019-03-23T15:51:54.751Z,31.40
2019-03-23T15:54:24.119Z,31.80
2019-03-23T15:56:53.274Z,32.00
2019-03-23T15:59:22.679Z,32.30
2019-03-23T16:01:52.254Z,32.30
2019-03-23T16:04:24.312Z,32.40
2019-03-23T16:06:54.040Z,32.80
2019-03-23T16:09:23.200Z,33.50
2019-03-23T16:11:52.262Z,33.40
2019-03-23T16:14:21.630Z,33.50
2019-03-23T16:16:50.848Z,33.60
2019-03-23T16:19:20.190Z,33.90
2019-03-23T16:21:49.500Z,34.00
2019-03-23T16:24:18.699Z,34.10
2019-03-23T16:26:47.830Z,34.00
2019-03-23T16:29:17.025Z,34.50
2019-03-23T16:31:46.617Z,34.50
2019-03-23T16:34:15.554Z,35.00
2019-03-23T16:36:45.379Z,35.10
2019-03-23T16:39:14.627Z,35.20
2019-03-23T16:41:43.802Z,35.50
2019-03-23T16:44:12.950Z,35.80
2019-03-23T16:46:42.154Z,35.60
2019-03-23T16:49:11.564Z,36.20
2019-03-23T16:51:40.798Z,36.50
2019-03-23T16:54:10.040Z,36.90
2019-03-23T16:56:39.464Z,37.00
2019-03-23T16:59:08.714Z,37.00
2019-03-23T17:01:38.041Z,37.20
2019-03-23T17:04:08.176Z,37.20
2019-03-23T17:06:46.067Z,37.60
2019-03-23T17:09:08.089Z,37.80
2019-03-23T17:11:37.342Z,37.90
2019-03-23T17:14:06.749Z,37.80
2019-03-23T17:16:35.977Z,38.20
2019-03-23T17:19:05.879Z,39.00
2019-03-23T17:21:35.187Z,39.20
2019-03-23T17:24:04.621Z,39.40
2019-03-23T17:26:33.642Z,39.20
2019-03-23T17:29:02.800Z,39.40
2019-03-23T17:31:32.150Z,39.20
2019-03-23T17:34:02.066Z,40.00
2019-03-23T17:36:31.088Z,40.40
2019-03-23T17:39:00.084Z,40.50
2019-03-23T17:41:29.087Z,40.80
2019-03-23T17:43:58.078Z,40.60
2019-03-23T17:46:27.860Z,40.60
2019-03-23T17:48:57.463Z,40.90
2019-03-23T17:51:26.480Z,41.00
2019-03-23T17:53:58.935Z,41.00
2019-03-23T17:56:26.411Z,41.30
2019-03-23T17:58:55.745Z,41.80
2019-03-23T18:01:25.476Z,42.50
2019-03-23T18:03:54.562Z,42.90
2019-03-23T18:06:23.605Z,43.10
2019-03-23T18:08:52.603Z,43.20
2019-03-23T18:11:21.686Z,43.50
2019-03-23T18:13:50.774Z,44.20
2019-03-23T18:16:19.926Z,44.00
2019-03-23T18:18:48.909Z,44.00
2019-03-23T18:21:18.083Z,44.10
2019-03-23T18:23:47.061Z,44.20
2019-03-23T18:26:16.045Z,44.90
2019-03-23T18:28:45.211Z,44.80
2019-03-23T18:31:14.739Z,44.50
2019-03-23T18:33:43.803Z,44.50
2019-03-23T18:36:12.793Z,44.70
2019-03-23T18:38:41.912Z,45.80
2019-03-23T18:41:11.184Z,45.40
2019-03-23T18:43:40.182Z,45.80
2019-03-23T18:46:09.101Z,45.60
2019-03-23T18:48:38.104Z,45.70
2019-03-23T18:51:07.054Z,46.00
2019-03-23T18:53:36.117Z,46.20
2019-03-23T18:56:05.499Z,46.60
2019-03-23T18:58:34.457Z,48.00
2019-03-23T19:01:03.484Z,47.60
2019-03-23T19:03:32.467Z,47.80
2019-03-23T19:06:01.516Z,48.10
2019-03-23T19:08:30.477Z,49.00
2019-03-23T19:10:59.756Z,49.00
2019-03-23T19:13:37.564Z,48.90
2019-03-23T19:16:00.071Z,48.90
2019-03-23T19:18:29.079Z,49.20
2019-03-23T19:20:58.186Z,49.50
2019-03-23T19:23:27.580Z,49.80
2019-03-23T19:25:56.896Z,50.40
2019-03-23T19:28:26.190Z,50.50
2019-03-23T19:30:55.228Z,50.60
2019-03-23T19:33:24.529Z,51.00
2019-03-23T19:35:53.756Z,51.60
2019-03-23T19:38:22.771Z,51.80
2019-03-23T19:40:52.037Z,51.60
2019-03-23T19:43:21.377Z,53.00
2019-03-23T19:45:50.364Z,52.70
2019-03-23T19:48:20.277Z,53.40
2019-03-23T19:50:49.623Z,53.70
2019-03-23T19:53:18.649Z,53.70
2019-03-23T19:55:48.193Z,53.80
2019-03-23T19:58:17.364Z,54.20
2019-03-23T20:00:47.958Z,54.50
2019-03-23T20:03:19.082Z,54.70
2019-03-23T20:05:48.736Z,55.20
2019-03-23T20:08:19.011Z,55.30
2019-03-23T20:10:48.847Z,55.40
2019-03-23T20:13:18.240Z,55.70
2019-03-23T20:15:47.538Z,55.70
2019-03-23T20:18:16.848Z,56.10
2019-03-23T20:20:46.423Z,56.20
2019-03-23T20:23:15.714Z,56.30
2019-03-23T20:25:44.742Z,57.00
2019-03-23T20:28:14.040Z,57.80
2019-03-23T20:30:43.206Z,58.00
2019-03-23T20:33:19.335Z,57.90
2019-03-23T20:35:43.766Z,57.80
2019-03-23T20:38:12.777Z,58.10
2019-03-23T20:40:42.028Z,58.70
2019-03-23T20:43:11.398Z,59.60
2019-03-23T20:45:41.506Z,59.40
2019-03-23T20:48:11.491Z,59.20
2019-03-23T20:50:41.729Z,59.60
2019-03-23T20:53:13.948Z,60.20
2019-03-23T20:55:43.457Z,60.50
2019-03-23T20:58:12.556Z,60.70
2019-03-23T21:00:41.550Z,61.70
2019-03-23T21:03:10.616Z,61.30
2019-03-23T21:05:39.620Z,62.00
2019-03-23T21:08:08.593Z,62.40
2019-03-23T21:10:37.856Z,62.70
2019-03-23T21:13:07.233Z,62.70
2019-03-23T21:15:36.224Z,63.80
2019-03-23T21:18:05.491Z,64.60
2019-03-23T21:20:34.865Z,66.90
2019-03-23T21:23:03.951Z,67.60
2019-03-23T21:25:33.432Z,68.40
2019-03-23T21:28:02.860Z,68.90
2019-03-23T21:30:31.984Z,69.90
2019-03-23T21:33:00.997Z,69.70
2019-03-23T21:35:30.386Z,70.20
2019-03-23T21:37:59.754Z,70.50
2019-03-23T21:40:28.988Z,70.50
2019-03-23T21:42:58.245Z,71.10
2019-03-23T21:45:27.592Z,71.50
2019-03-23T21:47:56.587Z,72.00
2019-03-23T21:50:25.545Z,73.10
2019-03-23T21:52:54.974Z,73.10
2019-03-23T21:55:24.468Z,74.10
2019-03-23T21:57:53.481Z,75.10
2019-03-23T22:00:31.568Z,75.30
2019-03-23T22:03:02.168Z,75.10
2019-03-23T22:05:31.220Z,75.10
2019-03-23T22:08:02.100Z,76.70
2019-03-23T22:10:31.364Z,76.40
2019-03-23T22:13:01.526Z,76.20
2019-03-23T22:15:32.508Z,77.00
2019-03-23T22:18:02.589Z,76.40
2019-03-23T22:20:31.906Z,76.40
2019-03-23T22:23:01.984Z,76.20
2019-03-23T22:25:31.501Z,75.50
2019-03-23T22:28:01.340Z,76.30
2019-03-23T22:30:31.040Z,76.40
2019-03-23T22:33:00.605Z,75.60
2019-03-23T22:35:29.937Z,76.00
2019-03-23T22:37:59.069Z,76.30
2019-03-23T22:40:28.452Z,76.10
2019-03-23T22:42:57.487Z,76.40
2019-03-23T22:45:26.695Z,75.80
2019-03-23T22:47:56.415Z,76.10
2019-03-23T22:50:25.808Z,75.60
2019-03-23T22:52:54.808Z,75.80
2019-03-23T22:55:24.088Z,75.90
2019-03-23T22:57:53.541Z,75.80
2019-03-23T23:00:40.365Z,75.10
2019-03-23T23:03:10.336Z,75.50
2019-03-23T23:05:39.652Z,75.30
2019-03-23T23:08:09.232Z,75.50
2019-03-23T23:10:38.581Z,75.50
2019-03-23T23:13:07.652Z,75.60
2019-03-23T23:15:37.146Z,75.60
2019-03-23T23:18:06.354Z,75.30
2019-03-23T23:20:35.419Z,75.20
2019-03-23T23:23:04.722Z,75.40
2019-03-23T23:25:34.074Z,75.00
2019-03-23T23:28:03.279Z,75.00
2019-03-23T23:30:32.825Z,75.00
2019-03-23T23:33:01.951Z,74.90
2019-03-23T23:35:31.295Z,74.50
2019-03-23T23:38:00.450Z,73.90
2019-03-23T23:40:29.797Z,72.90
2019-03-23T23:42:59.055Z,72.20
2019-03-23T23:45:28.476Z,71.10
2019-03-23T23:47:57.742Z,70.50
2019-03-23T23:50:26.984Z,70.40
2019-03-23T23:52:56.359Z,70.50
2019-03-23T23:55:25.660Z,70.90
2019-03-23T23:57:54.946Z,71.10
